Time;durP1;ratioP1;P1;durP2;ratioP2;P2;SDS_P1;SDS_P2;PMS_P1;PMS_P2;Temp;Humidity;BMP_temperature;BMP_pressure;BME280_temperature;BME280_humidity;BME280_pressure;Samples;Min_cycle;Max_cycle;Signal;HPM_P1;HPM_P2
2021/07/03 00:00:38;;;;;;;5.08;3.83;;;;;;;21.14;100.00;98084.59;1644493;86;21487;-68
2021/07/03 00:03:06;;;;;;;5.05;3.65;;;;;;;21.12;100.00;98078.95;1644244;85;21500;-68
2021/07/03 00:05:34;;;;;;;3.70;3.02;;;;;;;21.10;100.00;98076.86;1644415;85;21083;-67
2021/07/03 00:08:02;;;;;;;6.80;3.08;;;;;;;21.07;100.00;98072.56;1644135;86;20973;-66
2021/07/03 00:10:30;;;;;;;9.10;3.30;;;;;;;21.09;100.00;98080.50;1644485;85;20965;-67
2021/07/03 00:12:58;;;;;;;4.70;3.22;;;;;;;21.09;100.00;98077.82;1644162;86;21017;-68
2021/07/03 00:15:26;;;;;;;6.70;3.12;;;;;;;21.08;100.00;98087.69;1644473;86;21448;-67
2021/07/03 00:17:55;;;;;;;4.92;3.20;;;;;;;21.04;100.00;98086.17;1644230;85;21146;-67
2021/07/03 00:20:23;;;;;;;4.28;3.20;;;;;;;21.03;100.00;98095.17;1639500;85;20890;-68
2021/07/03 00:22:51;;;;;;;5.70;2.98;;;;;;;21.01;100.00;98086.37;1607716;88;21050;-67
2021/07/03 00:25:18;;;;;;;3.37;3.08;;;;;;;21.03;100.00;98083.11;1637208;86;21590;-68
2021/07/03 00:27:46;;;;;;;5.70;3.35;;;;;;;21.01;100.00;98081.86;1636913;86;20937;-66
2021/07/03 00:30:14;;;;;;;3.58;3.17;;;;;;;21.00;100.00;98088.66;1637124;86;21082;-67
2021/07/03 00:32:42;;;;;;;4.35;2.95;;;;;;;20.98;100.00;98089.25;1636872;86;20882;-67
2021/07/03 00:35:11;;;;;;;4.62;2.95;;;;;;;20.95;100.00;98086.28;1607866;87;20960;-68
2021/07/03 00:37:38;;;;;;;3.45;2.75;;;;;;;20.95;100.00;98087.63;1636917;86;21018;-67
2021/07/03 00:40:07;;;;;;;4.15;2.77;;;;;;;20.96;100.00;98085.33;1625505;86;20982;-67
2021/07/03 00:42:35;;;;;;;3.65;3.10;;;;;;;20.96;100.00;98087.14;1636915;86;21096;-67
2021/07/03 00:45:04;;;;;;;4.72;3.05;;;;;;;20.93;100.00;98086.87;1636832;86;20971;-67
2021/07/03 00:47:32;;;;;;;3.55;2.80;;;;;;;20.93;100.00;98085.52;1637003;86;20910;-67
2021/07/03 00:50:00;;;;;;;4.65;2.52;;;;;;;20.91;100.00;98079.89;1625353;87;20941;-67
2021/07/03 00:52:27;;;;;;;4.30;2.85;;;;;;;20.91;100.00;98074.05;1604424;87;20982;-67
2021/07/03 00:54:56;;;;;;;3.33;3.02;;;;;;;20.90;100.00;98072.32;1607720;88;20911;-67
2021/07/03 00:57:25;;;;;;;4.22;2.80;;;;;;;20.88;100.00;98063.52;1636790;86;21016;-67
2021/07/03 00:59:53;;;;;;;4.10;3.10;;;;;;;20.87;100.00;98064.96;1625574;86;21492;-67
2021/07/03 01:02:23;;;;;;;3.98;2.50;;;;;;;20.86;100.00;98059.22;1636915;85;21136;-67
2021/07/03 01:04:51;;;;;;;3.77;2.52;;;;;;;20.86;100.00;98054.72;1636955;86;20926;-68
2021/07/03 01:07:20;;;;;;;3.98;2.90;;;;;;;20.85;100.00;98045.44;1636596;86;21099;-67
2021/07/03 01:09:50;;;;;;;4.35;2.80;;;;;;;20.83;100.00;98047.36;1607558;87;21451;-67
2021/07/03 01:12:18;;;;;;;6.20;2.92;;;;;;;20.82;100.00;98038.94;1625784;86;20970;-67
2021/07/03 01:14:48;;;;;;;5.75;2.65;;;;;;;20.81;100.00;98042.55;1636898;86;20905;-67
2021/07/03 01:17:18;;;;;;;4.10;3.12;;;;;;;20.81;100.00;98047.91;1637188;86;20969;-67
2021/07/03 01:19:48;;;;;;;4.33;2.52;;;;;;;20.83;100.00;98048.70;1608169;88;21518;-67
2021/07/03 01:22:18;;;;;;;4.45;3.10;;;;;;;20.82;100.00;98045.16;1641317;86;21468;-69
2021/07/03 01:24:47;;;;;;;4.55;2.85;;;;;;;20.82;100.00;98040.28;1641329;86;20937;-69
2021/07/03 01:27:15;;;;;;;4.62;2.40;;;;;;;20.82;100.00;98041.62;1641302;86;21013;-68
2021/07/03 01:29:45;;;;;;;4.00;2.83;;;;;;;20.83;100.00;98042.86;1641294;86;21413;-68
2021/07/03 01:32:14;;;;;;;5.65;2.70;;;;;;;20.85;100.00;98044.09;1641338;86;21104;-67
2021/07/03 01:34:42;;;;;;;2.83;2.50;;;;;;;20.85;100.00;98042.76;1624237;86;20882;-67
2021/07/03 01:37:12;;;;;;;3.98;2.37;;;;;;;20.83;100.00;98043.34;1623770;86;21496;-67
2021/07/03 01:39:41;;;;;;;4.70;2.50;;;;;;;20.81;100.00;98046.12;1640987;86;20946;-67
2021/07/03 01:42:10;;;;;;;5.97;3.20;;;;;;;20.83;100.00;98048.70;1641603;86;20989;-67
2021/07/03 01:44:40;;;;;;;8.50;2.70;;;;;;;20.81;100.00;98042.09;1641270;86;21067;-69
2021/07/03 01:47:08;;;;;;;4.87;2.58;;;;;;;20.79;100.00;98041.30;1641529;86;20974;-68
2021/07/03 01:49:38;;;;;;;3.95;2.87;;;;;;;20.79;100.00;98043.13;1641334;86;20890;-68
2021/07/03 01:52:07;;;;;;;9.10;2.47;;;;;;;20.78;100.00;98048.96;1624733;87;21489;-68
2021/07/03 01:54:36;;;;;;;6.90;2.77;;;;;;;20.79;100.00;98048.48;1641377;86;20973;-68
2021/07/03 01:57:06;;;;;;;6.00;2.70;;;;;;;20.79;100.00;98049.83;1641560;86;20874;-68
2021/07/03 01:59:35;;;;;;;5.17;2.92;;;;;;;20.78;100.00;98053.47;1639424;86;20925;-68
2021/07/03 02:02:05;;;;;;;4.80;3.08;;;;;;;20.74;100.00;98045.62;1641310;86;20977;-68
2021/07/03 02:04:34;;;;;;;4.60;2.92;;;;;;;20.71;100.00;98055.20;1641211;86;20985;-68
2021/07/03 02:07:03;;;;;;;7.28;2.77;;;;;;;20.70;100.00;98053.48;1641392;86;21040;-68
2021/07/03 02:09:33;;;;;;;5.72;2.70;;;;;;;20.69;100.00;98053.58;1641576;86;21887;-68
2021/07/03 02:12:05;;;;;;;4.70;2.60;;;;;;;20.67;100.00;98047.45;1641131;86;21497;-68
2021/07/03 02:14:34;;;;;;;7.30;2.70;;;;;;;20.65;100.00;98046.70;1640907;86;21025;-68
2021/07/03 02:17:04;;;;;;;4.25;2.50;;;;;;;20.66;100.00;98051.95;1640065;86;21065;-68
2021/07/03 02:19:33;;;;;;;3.67;2.58;;;;;;;20.67;100.00;98054.16;1624809;86;21548;-68
2021/07/03 02:22:03;;;;;;;4.28;2.60;;;;;;;20.64;100.00;98052.53;1644110;86;21496;-68
2021/07/03 02:24:35;;;;;;;3.60;2.55;;;;;;;20.64;100.00;98055.70;1643601;86;20949;-68
2021/07/03 02:27:04;;;;;;;3.58;2.50;;;;;;;20.63;100.00;98056.17;1644138;86;21049;-68
2021/07/03 02:29:33;;;;;;;3.50;2.25;;;;;;;20.62;100.00;98055.80;1644135;86;20949;-68
2021/07/03 02:32:00;;;;;;;4.83;2.27;;;;;;;20.64;100.00;98055.70;1644254;86;20984;-67
2021/07/03 02:34:28;;;;;;;7.35;2.77;;;;;;;20.63;100.00;98053.49;1644320;85;23114;-67
2021/07/03 02:36:57;;;;;;;3.27;2.60;;;;;;;20.63;100.00;98056.17;1644211;86;20909;-67
2021/07/03 02:39:24;;;;;;;2.62;2.42;;;;;;;20.62;100.00;98063.83;1644238;86;20917;-69
2021/07/03 02:41:54;;;;;;;5.72;2.33;;;;;;;20.61;100.00;98071.48;1644217;86;20949;-68
2021/07/03 02:44:22;;;;;;;3.17;2.30;;;;;;;20.61;100.00;98071.48;1625720;86;20965;-67
2021/07/03 02:46:50;;;;;;;2.45;2.15;;;;;;;20.61;100.00;98067.95;1644343;86;21113;-67
2021/07/03 02:49:20;;;;;;;3.87;2.55;;;;;;;20.60;100.00;98077.80;1644429;86;20961;-68
2021/07/03 02:51:48;;;;;;;3.47;2.27;;;;;;;20.60;100.00;98076.95;1625314;87;20938;-68
2021/07/03 02:54:17;;;;;;;3.47;2.50;;;;;;;20.59;100.00;98078.77;1644246;86;21448;-68
2021/07/03 02:56:44;;;;;;;3.95;2.33;;;;;;;20.60;100.00;98081.83;1644479;85;20973;-67
2021/07/03 02:59:12;;;;;;;2.60;2.30;;;;;;;20.63;100.00;98079.43;1644467;86;21929;-68
2021/07/03 03:01:40;;;;;;;3.12;2.50;;;;;;;20.62;100.00;98085.27;1644205;85;20889;-68
2021/07/03 03:04:11;;;;;;;4.53;2.20;;;;;;;20.63;100.00;98082.11;1644523;86;20953;-68
2021/07/03 03:06:38;;;;;;;4.37;2.42;;;;;;;20.63;100.00;98086.98;1644483;85;21451;-67
2021/07/03 03:09:06;;;;;;;6.12;2.30;;;;;;;20.64;100.00;98081.16;1644252;86;21024;-67
2021/07/03 03:11:35;;;;;;;4.28;2.70;;;;;;;20.67;100.00;98078.28;1644482;86;21050;-68
2021/07/03 03:14:03;;;;;;;4.10;3.12;;;;;;;20.65;100.00;98074.35;1644401;86;20945;-68
2021/07/03 03:16:31;;;;;;;5.60;2.75;;;;;;;20.65;100.00;98080.19;1625398;87;20997;-68
2021/07/03 03:19:01;;;;;;;5.62;3.42;;;;;;;20.64;100.00;98082.01;1644518;86;21480;-68
2021/07/03 03:21:30;;;;;;;5.42;3.05;;;;;;;20.66;100.00;98083.25;1644270;86;20893;-68
2021/07/03 03:23:58;;;;;;;7.85;2.83;;;;;;;20.66;100.00;98085.94;1644519;86;21174;-68
2021/07/03 03:26:26;;;;;;;4.10;3.08;;;;;;;20.66;100.00;98090.81;1644209;85;20946;-69
2021/07/03 03:28:54;;;;;;;4.42;2.58;;;;;;;20.64;100.00;98083.35;1644547;86;20973;-67
2021/07/03 03:31:22;;;;;;;4.60;3.50;;;;;;;20.66;100.00;98085.45;1625467;86;20949;-68
2021/07/03 03:33:50;;;;;;;4.70;3.17;;;;;;;20.68;100.00;98088.03;1644503;86;20878;-68
2021/07/03 03:36:18;;;;;;;5.75;3.65;;;;;;;20.67;100.00;98084.97;1644246;85;21089;-66
2021/07/03 03:38:47;;;;;;;3.40;3.10;;;;;;;20.67;100.00;98097.89;1644440;85;20941;-68
2021/07/03 03:41:15;;;;;;;4.28;2.72;;;;;;;20.69;100.00;98105.83;1644238;86;21425;-68
2021/07/03 03:43:43;;;;;;;2.85;2.45;;;;;;;20.69;100.00;98107.17;1644433;87;21028;-67
2021/07/03 03:46:11;;;;;;;4.90;3.00;;;;;;;20.72;100.00;98105.64;1644234;86;21016;-68
2021/07/03 03:48:40;;;;;;;3.30;3.00;;;;;;;20.73;100.00;98106.02;1644469;86;21045;-68
2021/07/03 03:51:09;;;;;;;6.08;3.80;;;;;;;20.74;100.00;98112.63;1625605;86;21441;-67
2021/07/03 03:53:37;;;;;;;9.08;6.10;;;;;;;20.74;100.00;98122.00;1625764;87;20961;-68
2021/07/03 03:56:05;;;;;;;7.03;4.80;;;;;;;20.75;100.00;98125.55;1625564;87;21021;-69
2021/07/03 03:58:34;;;;;;;6.42;3.42;;;;;;;20.77;100.00;98116.06;1644418;85;20913;-69
2021/07/03 04:01:02;;;;;;;4.65;3.37;;;;;;;20.77;100.00;98110.70;1644170;86;21061;-66
2021/07/03 04:03:31;;;;;;;11.30;6.25;;;;;;;20.76;100.00;98116.55;1644381;85;20965;-65
2021/07/03 04:05:59;;;;;;;6.78;5.85;;;;;;;20.74;100.00;98116.64;1644282;86;21440;-65
2021/07/03 04:08:27;;;;;;;6.12;4.33;;;;;;;20.73;100.00;98118.94;1644490;85;20953;-65
2021/07/03 04:10:56;;;;;;;5.60;4.22;;;;;;;20.74;100.00;98119.32;1644187;86;20965;-65
2021/07/03 04:13:24;;;;;;;5.00;3.90;;;;;;;20.77;100.00;98115.59;1644475;85;21091;-66
2021/07/03 04:15:51;;;;;;;9.90;4.30;;;;;;;20.79;100.00;98120.84;1644099;86;20960;-66
2021/07/03 04:18:19;;;;;;;9.90;4.20;;;;;;;20.75;100.00;98118.36;1644484;85;20921;-67
2021/07/03 04:20:46;;;;;;;4.33;3.90;;;;;;;20.72;100.00;98118.56;1644133;86;20957;-67
2021/07/03 04:23:14;;;;;;;6.20;3.98;;;;;;;20.75;100.00;98117.02;1644482;85;21440;-66
2021/07/03 04:25:41;;;;;;;5.33;4.55;;;;;;;20.78;100.00;98120.47;1625421;86;21104;-67
2021/07/03 04:28:09;;;;;;;5.22;4.30;;;;;;;20.77;100.00;98114.25;1644382;86;20949;-67
2021/07/03 04:30:37;;;;;;;4.40;4.00;;;;;;;20.78;100.00;98110.61;1625592;87;21492;-67
2021/07/03 04:33:05;;;;;;;5.20;4.25;;;;;;;20.81;100.00;98105.53;1644404;86;20893;-66
2021/07/03 04:35:34;;;;;;;6.58;4.97;;;;;;;20.85;100.00;98109.29;1644213;86;21462;-67
2021/07/03 04:38:01;;;;;;;8.03;5.20;;;;;;;20.88;100.00;98109.57;1644435;85;21453;-68
2021/07/03 04:40:30;;;;;;;6.92;5.15;;;;;;;20.88;100.00;98113.11;1644118;86;20961;-68
2021/07/03 04:42:58;;;;;;;6.35;5.60;;;;;;;20.90;100.00;98114.35;1644178;86;21025;-68
2021/07/03 04:45:27;;;;;;;5.78;5.20;;;;;;;20.91;100.00;98116.93;1644344;85;20913;-67
2021/07/03 04:47:56;;;;;;;6.17;5.58;;;;;;;20.93;100.00;98119.03;1644290;86;20929;-67
2021/07/03 04:50:23;;;;;;;5.65;5.15;;;;;;;20.97;100.00;98114.34;1625559;86;21079;-68
2021/07/03 04:52:51;;;;;;;6.60;5.35;;;;;;;20.98;100.00;98115.58;1644154;86;21385;-66
2021/07/03 04:55:18;;;;;;;6.28;5.50;;;;;;;21.01;100.00;98112.70;1644398;85;20965;-67
2021/07/03 04:57:46;;;;;;;5.70;5.20;;;;;;;21.04;100.00;98117.86;1644189;86;20956;-67
2021/07/03 05:00:14;;;;;;;5.70;5.20;;;;;;;21.09;100.00;98115.36;1644408;85;20981;-66
2021/07/03 05:02:42;;;;;;;7.12;5.00;;;;;;;21.12;100.00;98110.66;1644238;86;21828;-66
2021/07/03 05:05:10;;;;;;;7.87;4.92;;;;;;;21.14;100.00;98120.80;1644390;85;20917;-67
2021/07/03 05:07:42;;;;;;;7.35;5.58;;;;;;;21.15;100.00;98117.64;1644186;86;20866;-66
2021/07/03 05:10:12;;;;;;;8.40;6.17;;;;;;;21.18;100.00;98126.83;1644295;86;20957;-67
2021/07/03 05:12:41;;;;;;;6.60;5.50;;;;;;;21.21;100.00;98131.51;1644173;86;20929;-67
2021/07/03 05:15:09;;;;;;;6.25;5.40;;;;;;;21.23;100.00;98127.42;1644196;86;21962;-68
2021/07/03 05:17:37;;;;;;;7.30;4.95;;;;;;;21.25;100.00;98127.70;1644085;86;21524;-64
2021/07/03 05:20:07;;;;;;;5.97;5.47;;;;;;;21.26;100.00;98125.87;1644400;86;20866;-65
2021/07/03 05:22:34;;;;;;;5.80;5.30;;;;;;;21.26;100.00;98126.73;1637609;86;20957;-66
2021/07/03 05:25:02;;;;;;;6.05;5.30;;;;;;;21.27;100.00;98126.25;1636934;86;21009;-63
2021/07/03 05:27:29;;;;;;;8.10;5.37;;;;;;;21.32;100.00;98126.84;1636917;86;21136;-64
2021/07/03 05:29:57;;;;;;;6.37;5.78;;;;;;;21.38;100.00;98133.63;1636860;86;20953;-66
2021/07/03 05:32:24;;;;;;;6.33;5.67;;;;;;;21.41;100.00;98133.42;1636852;86;20968;-65
2021/07/03 05:34:51;;;;;;;6.47;5.10;;;;;;;21.42;100.00;98137.83;1607597;88;20971;-63
2021/07/03 05:37:19;;;;;;;5.67;4.92;;;;;;;21.44;100.00;98134.08;1636886;86;20994;-64
2021/07/03 05:39:46;;;;;;;5.20;4.75;;;;;;;21.48;100.00;98125.34;1607638;88;21275;-64
2021/07/03 05:42:13;;;;;;;5.45;5.05;;;;;;;21.52;100.00;98126.86;1636855;87;20946;-65
2021/07/03 05:44:42;;;;;;;6.08;5.50;;;;;;;21.50;100.00;98128.31;1607655;87;21420;-65
2021/07/03 05:47:10;;;;;;;6.37;5.05;;;;;;;21.52;100.00;98127.72;1637029;86;20866;-66
2021/07/03 05:49:37;;;;;;;6.67;5.20;;;;;;;21.50;100.00;98116.72;1607627;88;20919;-66
2021/07/03 05:52:06;;;;;;;5.20;4.70;;;;;;;21.49;100.00;98125.25;1637080;86;21460;-66
2021/07/03 05:54:33;;;;;;;4.45;3.98;;;;;;;21.52;100.00;98125.52;1572027;90;20891;-65
2021/07/03 05:57:01;;;;;;;5.40;4.78;;;;;;;21.56;100.00;98127.90;1611033;87;20894;-65
2021/07/03 05:59:29;;;;;;;8.70;4.90;;;;;;;21.60;100.00;98128.55;1581876;89;21503;-66
2021/07/03 06:01:56;;;;;;;7.22;4.50;;;;;;;21.65;100.00;98125.08;1582295;89;21070;-66
2021/07/03 06:04:24;;;;;;;7.17;5.20;;;;;;;21.69;100.00;98133.30;1582223;89;23217;-65
2021/07/03 06:06:51;;;;;;;6.55;4.83;;;;;;;21.75;100.00;98139.59;1582442;89;20899;-66
2021/07/03 06:09:19;;;;;;;5.15;4.75;;;;;;;21.76;100.00;98135.09;1610677;87;21521;-66
2021/07/03 06:11:48;;;;;;;6.55;4.67;;;;;;;21.82;100.00;98145.44;1582428;89;20970;-65
2021/07/03 06:14:15;;;;;;;5.70;4.22;;;;;;;21.86;100.00;98137.08;1582428;89;21495;-67
2021/07/03 06:16:43;;;;;;;7.00;4.75;;;;;;;21.89;100.00;98139.55;1611141;87;21085;-67
2021/07/03 06:19:11;;;;;;;5.28;4.78;;;;;;;21.92;100.00;98140.69;1582481;89;20982;-66
2021/07/03 06:21:38;;;;;;;4.58;4.20;;;;;;;21.96;100.00;98138.65;1582564;89;20943;-67
2021/07/03 06:24:07;;;;;;;7.40;5.15;;;;;;;22.03;100.00;98135.06;1610955;87;20903;-67
2021/07/03 06:26:35;;;;;;;5.00;4.50;;;;;;;22.09;100.00;98133.33;1611186;87;20970;-65
2021/07/03 06:29:04;;;;;;;5.05;4.55;;;;;;;22.15;100.00;98140.97;1610995;87;21808;-64
2021/07/03 06:31:31;;;;;;;6.15;4.22;;;;;;;22.18;100.00;98136.23;1611076;87;20918;-65
2021/07/03 06:33:58;;;;;;;5.67;4.17;;;;;;;22.20;100.00;98130.77;1595916;87;20973;-66
2021/07/03 06:36:25;;;;;;;6.90;4.40;;;;;;;22.20;100.00;98126.25;1611100;87;20979;-66
2021/07/03 06:38:52;;;;;;;4.83;4.40;;;;;;;22.23;100.00;98136.81;1582579;89;20985;-65
2021/07/03 06:41:20;;;;;;;4.45;4.05;;;;;;;22.23;100.00;98130.09;1610937;87;21111;-63
2021/07/03 06:43:47;;;;;;;9.98;4.20;;;;;;;22.25;100.00;98135.36;1610873;88;20954;-65
2021/07/03 06:46:14;;;;;;;6.62;4.10;;;;;;;22.26;100.00;98133.05;1610899;87;20966;-66
2021/07/03 06:48:42;;;;;;;6.70;4.33;;;;;;;22.23;100.00;98135.47;1610894;87;20962;-66
2021/07/03 06:51:09;;;;;;;6.92;4.47;;;;;;;22.26;100.00;98136.59;1610934;87;20981;-63
2021/07/03 06:53:37;;;;;;;5.83;4.00;;;;;;;22.28;100.00;98141.38;1611002;87;21115;-65
2021/07/03 06:56:05;;;;;;;6.47;4.03;;;;;;;22.32;100.00;98138.48;1610948;87;21481;-64
2021/07/03 06:58:32;;;;;;;8.30;3.90;;;;;;;22.37;100.00;98139.88;1582560;89;21603;-64
2021/07/03 07:01:00;;;;;;;4.50;4.10;;;;;;;22.41;100.00;98141.38;1610877;87;21032;-66
2021/07/03 07:03:27;;;;;;;4.50;4.10;;;;;;;22.43;100.00;98142.13;1610953;87;20942;-64
2021/07/03 07:05:55;;;;;;;5.22;3.87;;;;;;;22.43;100.00;98137.24;1610910;87;21159;-66
2021/07/03 07:08:22;;;;;;;4.58;4.12;;;;;;;22.46;100.00;98149.98;1610948;87;20959;-63
2021/07/03 07:10:51;;;;;;;5.22;3.60;;;;;;;22.51;100.00;98151.86;1582516;89;21417;-66
2021/07/03 07:16:27;;;;;;;4.58;4.17;;;;;;;22.59;100.00;98148.14;1545180;90;21617;-66
2021/07/03 07:19:02;;;;;;;6.10;3.98;;;;;;;22.65;100.00;98151.37;1553278;87;21012;-67
2021/07/03 07:21:29;;;;;;;9.43;4.22;;;;;;;22.69;100.00;98150.18;1628991;86;21567;-66
2021/07/03 07:23:59;;;;;;;7.12;3.77;;;;;;;22.74;100.00;98148.05;1607881;87;21474;-66
2021/07/03 07:26:26;;;;;;;9.93;4.00;;;;;;;22.79;100.00;98146.76;1636959;86;20921;-65
2021/07/03 07:28:54;;;;;;;5.87;3.60;;;;;;;22.86;100.00;98145.38;1637254;86;21464;-64
2021/07/03 07:31:22;;;;;;;5.15;3.40;;;;;;;22.93;100.00;98142.63;1607638;88;21371;-66
2021/07/03 07:33:50;;;;;;;6.35;3.87;;;;;;;23.07;100.00;98145.66;1637136;86;20905;-66
2021/07/03 07:36:19;;;;;;;7.42;3.72;;;;;;;23.19;100.00;98145.27;1625670;87;20945;-66
2021/07/03 07:38:51;;;;;;;6.92;4.00;;;;;;;23.29;100.00;98142.77;1607826;87;20963;-66
2021/07/03 07:41:19;;;;;;;4.97;3.50;;;;;;;23.42;100.00;98146.27;1636956;86;21488;-67
2021/07/03 07:43:48;;;;;;;4.30;3.62;;;;;;;23.56;100.00;98143.44;1637178;87;21117;-66
2021/07/03 07:46:15;;;;;;;7.58;3.87;;;;;;;23.66;100.00;98144.50;1578688;89;21427;-67
2021/07/03 07:48:42;;;;;;;4.30;3.90;;;;;;;23.76;100.00;98146.00;1586036;89;21480;-66
2021/07/03 07:51:10;;;;;;;4.80;3.60;;;;;;;23.81;100.00;98139.30;1585555;89;20973;-62
2021/07/03 07:53:39;;;;;;;4.55;3.72;;;;;;;23.89;100.00;98144.09;1558175;90;21057;-66
2021/07/03 07:56:06;;;;;;;6.33;3.47;;;;;;;24.02;100.00;98148.05;1585496;89;22338;-64
2021/07/03 07:58:34;;;;;;;5.67;3.65;;;;;;;24.13;100.00;98144.94;1585667;89;20886;-65
2021/07/03 08:01:02;;;;;;;5.53;3.80;;;;;;;24.25;100.00;98139.58;1584818;89;20914;-66
2021/07/03 08:03:30;;;;;;;4.00;3.60;;;;;;;24.33;100.00;98132.64;1584489;89;21472;-66
2021/07/03 08:05:57;;;;;;;12.47;4.03;;;;;;;24.38;100.00;98149.31;1556477;90;21010;-66
2021/07/03 08:08:26;;;;;;;4.20;3.80;;;;;;;24.37;100.00;98150.78;1585518;89;21075;-67
2021/07/03 08:10:55;;;;;;;4.33;3.80;;;;;;;24.34;100.00;98145.14;1585428;88;20941;-66
2021/07/03 08:13:23;;;;;;;5.85;3.98;;;;;;;24.34;100.00;98145.62;1539486;90;20998;-64
2021/07/03 08:15:52;;;;;;;4.33;3.85;;;;;;;24.32;100.00;98153.83;1557945;90;21490;-65
2021/07/03 08:18:23;;;;;;;6.72;3.65;;;;;;;24.34;100.00;98159.10;1558193;90;20979;-64
2021/07/03 08:20:51;;;;;;;4.37;3.98;;;;;;;24.38;100.00;98155.19;1559328;90;21167;-66
2021/07/03 08:23:18;;;;;;;4.45;4.05;;;;;;;24.39;100.00;98160.46;1595358;88;21406;-68
2021/07/03 08:25:48;;;;;;;5.58;4.60;;;;;;;24.39;100.00;98159.11;1597711;88;20967;-67
2021/07/03 08:28:15;;;;;;;5.22;4.10;;;;;;;24.37;100.00;98151.64;1598009;88;21457;-66
2021/07/03 08:30:43;;;;;;;5.55;4.45;;;;;;;24.36;100.00;98157.15;1597813;88;20986;-66
2021/07/03 08:33:11;;;;;;;4.42;3.90;;;;;;;24.36;100.00;98158.49;1597982;88;21093;-66
2021/07/03 08:35:38;;;;;;;4.80;3.90;;;;;;;24.39;100.00;98157.77;1597755;88;20964;-63
2021/07/03 08:38:05;;;;;;;5.40;3.65;;;;;;;24.46;100.00;98158.14;1598008;88;20934;-64
2021/07/03 08:40:33;;;;;;;3.85;3.55;;;;;;;24.51;100.00;98154.59;1597863;88;20931;-63
2021/07/03 08:43:00;;;;;;;4.55;3.55;;;;;;;24.53;100.00;98145.90;1597849;88;20934;-63
2021/07/03 08:45:28;;;;;;;3.72;3.42;;;;;;;24.57;100.00;98146.52;1598025;88;21093;-63
2021/07/03 08:47:55;;;;;;;4.40;3.05;;;;;;;24.65;100.00;98144.10;1597782;88;21498;-63
2021/07/03 08:50:23;;;;;;;4.15;3.30;;;;;;;24.72;100.00;98138.09;1601828;87;20975;-64
2021/07/03 08:52:51;;;;;;;5.78;3.55;;;;;;;24.83;100.00;98137.73;1609116;87;21426;-64
2021/07/03 08:55:22;;;;;;;3.75;3.45;;;;;;;24.91;100.00;98142.02;1598062;88;20915;-64
2021/07/03 08:58:26;;;;;;;5.37;3.60;;;;;;;24.97;100.00;98143.73;1598129;88;21750;-65
2021/07/03 09:00:53;;;;;;;7.78;3.70;;;;;;;25.02;100.00;98136.15;1597963;88;20997;-64
2021/07/03 09:03:26;;;;;;;5.70;3.60;;;;;;;25.08;100.00;98132.98;1597838;88;20983;-65
2021/07/03 09:05:55;;;;;;;6.55;3.70;;;;;;;25.15;100.00;98129.30;1598014;88;20879;-65
2021/07/03 09:08:24;;;;;;;3.62;3.33;;;;;;;25.21;100.00;98122.53;1597815;88;20902;-65
2021/07/03 09:11:08;;;;;;;6.25;3.30;;;;;;;25.31;100.00;98130.24;1598031;88;21506;-65
2021/07/03 09:13:39;;;;;;;3.30;3.00;;;;;;;25.45;100.00;98130.45;1597761;88;20995;-65
2021/07/03 09:16:07;;;;;;;3.15;2.95;;;;;;;25.63;100.00;98125.76;1579878;89;33050;-67
2021/07/03 09:18:35;;;;;;;5.92;3.40;;;;;;;25.78;100.00;98121.43;1597888;88;21023;-67
2021/07/03 09:21:05;;;;;;;3.60;3.30;;;;;;;25.88;100.00;98125.06;1598163;88;20942;-66
2021/07/03 09:23:38;;;;;;;4.55;3.00;;;;;;;25.87;100.00;98125.56;1597873;88;21194;-67
2021/07/03 09:26:08;;;;;;;5.25;3.00;;;;;;;25.85;100.00;98122.62;1597848;88;20890;-67
2021/07/03 09:28:43;;;;;;;4.50;3.40;;;;;;;25.83;100.00;98125.45;1597989;88;26471;-68
2021/07/03 09:31:13;;;;;;;4.05;3.30;;;;;;;25.80;100.00;98125.72;1597850;88;21027;-68
2021/07/03 09:33:47;;;;;;;4.10;3.37;;;;;;;25.81;100.00;98126.58;1597822;88;21474;-67
2021/07/03 09:36:19;;;;;;;3.20;2.90;;;;;;;25.87;100.00;98128.76;1597917;88;21079;-67
2021/07/03 09:38:50;;;;;;;3.15;2.90;;;;;;;26.01;100.00;98125.28;1592540;88;20922;-67
2021/07/03 09:41:32;;;;;;;3.45;2.77;;;;;;;26.17;100.00;98120.77;1597890;88;20926;-67
2021/07/03 09:44:07;;;;;;;3.05;2.60;;;;;;;26.37;100.00;98122.27;1597864;88;20959;-68
2021/07/03 09:46:40;;;;;;;2.92;2.62;;;;;;;26.61;100.00;98124.21;1598072;88;20931;-67
2021/07/03 09:49:21;;;;;;;3.92;2.75;;;;;;;26.82;100.00;98125.52;1597871;88;20955;-66
2021/07/03 09:51:54;;;;;;;5.20;2.80;;;;;;;26.94;100.00;98117.16;1598010;88;21496;-67
2021/07/03 09:54:28;;;;;;;2.90;2.70;;;;;;;26.97;100.00;98126.39;1597888;88;21023;-67
2021/07/03 09:57:01;;;;;;;2.60;2.37;;;;;;;26.96;100.00;98118.37;1597582;88;20978;-70
2021/07/03 09:59:31;;;;;;;3.10;2.80;;;;;;;26.96;100.00;98119.73;1597932;88;20970;-70
2021/07/03 10:01:58;;;;;;;5.35;2.70;;;;;;;26.98;100.00;98116.45;1598020;88;21135;-70
2021/07/03 10:04:26;;;;;;;3.85;2.58;;;;;;;27.00;100.00;98117.17;1597774;88;20967;-70
2021/07/03 10:07:20;;;;;;;3.87;2.35;;;;;;;27.01;100.00;98120.73;1598212;88;20942;-70
2021/07/03 10:09:54;;;;;;;2.30;2.00;;;;;;;27.06;100.00;98117.13;1580339;89;20982;-70
2021/07/03 10:12:30;;;;;;;2.00;1.90;;;;;;;27.14;100.00;98113.23;1598097;88;20975;-70
2021/07/03 10:14:58;;;;;;;5.62;2.00;;;;;;;27.19;100.00;98119.08;1597912;88;21121;-70
2021/07/03 10:17:29;;;;;;;2.17;1.98;;;;;;;27.18;100.00;98119.58;1598019;88;20911;-70
2021/07/03 10:19:57;;;;;;;3.50;2.10;;;;;;;27.20;100.00;98118.94;1597604;88;20922;-64
2021/07/03 10:22:27;;;;;;;7.70;2.10;;;;;;;27.17;100.00;98119.22;1598075;88;20996;-68
2021/07/03 10:25:15;;;;;;;3.17;2.12;;;;;;;27.11;100.00;98117.56;1606311;87;21529;-70
2021/07/03 10:27:56;;;;;;;5.75;2.15;;;;;;;27.07;100.00;98118.84;1609077;87;21106;-68
2021/07/03 10:30:31;;;;;;;4.30;2.22;;;;;;;27.11;100.00;98116.21;1609812;87;20954;-67
2021/07/03 10:33:07;;;;;;;5.22;2.00;;;;;;;27.19;100.00;98122.64;1609887;87;20962;-63
2021/07/03 10:35:52;;;;;;;3.75;1.95;;;;;;;27.29;100.00;98124.02;1613110;86;20930;-65
2021/07/03 10:38:29;;;;;;;6.08;2.00;;;;;;;27.38;100.00;98116.91;1659739;84;21060;-66
2021/07/03 10:41:16;;;;;;;3.58;2.10;;;;;;;27.49;100.00;98114.97;1664579;84;21039;-66
2021/07/03 10:43:55;;;;;;;3.47;2.00;;;;;;;27.59;100.00;98114.48;1608941;87;20878;-66
2021/07/03 10:46:32;;;;;;;3.95;1.90;;;;;;;27.65;100.00;98119.00;1609891;87;21516;-66
2021/07/03 10:49:03;;;;;;;5.33;2.20;;;;;;;27.72;100.00;98116.94;1609472;87;20910;-65
2021/07/03 10:51:47;;;;;;;4.75;2.60;;;;;;;27.77;100.00;98107.88;1606135;87;20966;-66
2021/07/03 10:54:23;;;;;;;2.35;2.12;;;;;;;27.80;100.00;98105.39;1609738;87;21128;-66
2021/07/03 10:57:07;;;;;;;4.22;2.20;;;;;;;27.88;100.00;98098.75;1609983;87;21506;-66
2021/07/03 10:59:43;;;;;;;2.40;2.20;;;;;;;27.93;100.00;98104.63;1609810;87;20926;-67
2021/07/03 11:02:19;;;;;;;2.75;2.30;;;;;;;28.00;100.00;98099.48;1605825;87;20922;-65
2021/07/03 11:04:54;;;;;;;7.25;2.20;;;;;;;28.07;100.00;98096.55;1609720;87;20972;-64
2021/07/03 11:07:28;;;;;;;5.42;2.12;;;;;;;28.16;100.00;98092.47;1609952;87;21235;-64
2021/07/03 11:10:12;;;;;;;3.50;2.30;;;;;;;28.25;100.00;98093.98;1609681;87;21523;-65
2021/07/03 11:12:53;;;;;;;2.87;2.30;;;;;;;28.36;100.00;98091.95;1609796;87;20962;-62
2021/07/03 11:15:27;;;;;;;3.77;1.95;;;;;;;28.50;100.00;98092.88;1609941;87;20974;-64
2021/07/03 11:17:59;;;;;;;158.75;8.03;;;;;;;28.60;100.00;98094.20;1609965;87;21021;-63
2021/07/03 11:20:30;;;;;;;9.73;2.40;;;;;;;28.65;97.52;98091.89;1609695;87;21118;-66
2021/07/03 11:22:58;;;;;;;3.33;1.87;;;;;;;28.70;97.30;98087.37;1610121;87;21021;-65
2021/07/03 11:25:32;;;;;;;2.42;2.22;;;;;;;28.77;96.52;98094.77;1609653;87;21017;-65
2021/07/03 11:28:17;;;;;;;3.60;2.52;;;;;;;28.82;94.39;98081.61;1609711;87;20938;-66
2021/07/03 11:30:55;;;;;;;3.27;2.15;;;;;;;28.86;94.61;98082.23;1610011;87;21484;-65
2021/07/03 11:33:23;;;;;;;4.80;2.10;;;;;;;28.97;93.95;98082.53;1609677;87;21125;-65
2021/07/03 11:35:50;;;;;;;6.75;2.70;;;;;;;29.04;91.94;98077.70;1605860;88;21473;-68
2021/07/03 11:38:22;;;;;;;5.08;2.12;;;;;;;29.11;90.59;98079.30;1609711;87;21045;-69